sensor_id;sensor_type;location;lat;lon;timestamp;P1;durP1;ratioP1;P2;durP2;ratioP2
39140;SDS011;24875;48.436;10.298;2023-08-17T00:00:13;5.90;;;2.28;;
39140;SDS011;24875;48.436;10.298;2023-08-17T00:02:41;5.40;;;1.85;;
39140;SDS011;24875;48.436;10.298;2023-08-17T00:05:08;7.63;;;1.77;;
39140;SDS011;24875;48.436;10.298;2023-08-17T00:07:35;2.90;;;1.90;;
39140;SDS011;24875;48.436;10.298;2023-08-17T00:10:02;3.55;;;1.75;;
39140;SDS011;24875;48.436;10.298;2023-08-17T00:12:29;3.13;;;2.15;;
39140;SDS011;24875;48.436;10.298;2023-08-17T00:14:57;4.03;;;2.28;;
39140;SDS011;24875;48.436;10.298;2023-08-17T00:17:23;2.75;;;1.48;;
39140;SDS011;24875;48.436;10.298;2023-08-17T00:19:50;4.15;;;2.20;;
39140;SDS011;24875;48.436;10.298;2023-08-17T00:22:16;6.03;;;2.30;;
39140;SDS011;24875;48.436;10.298;2023-08-17T00:24:43;5.35;;;2.25;;
39140;SDS011;24875;48.436;10.298;2023-08-17T00:27:10;3.78;;;1.83;;
39140;SDS011;24875;48.436;10.298;2023-08-17T00:29:36;3.10;;;2.08;;
39140;SDS011;24875;48.436;10.298;2023-08-17T00:32:05;3.85;;;2.20;;
39140;SDS011;24875;48.436;10.298;2023-08-17T00:34:32;3.90;;;2.33;;
39140;SDS011;24875;48.436;10.298;2023-08-17T00:36:58;3.13;;;1.95;;
39140;SDS011;24875;48.436;10.298;2023-08-17T00:39:25;4.40;;;2.20;;
39140;SDS011;24875;48.436;10.298;2023-08-17T00:41:52;5.38;;;2.17;;
39140;SDS011;24875;48.436;10.298;2023-08-17T00:44:18;4.15;;;2.05;;
39140;SDS011;24875;48.436;10.298;2023-08-17T00:46:45;4.60;;;2.22;;
39140;SDS011;24875;48.436;10.298;2023-08-17T00:49:13;4.05;;;2.30;;
39140;SDS011;24875;48.436;10.298;2023-08-17T00:51:39;3.03;;;1.85;;
39140;SDS011;24875;48.436;10.298;2023-08-17T00:54:06;6.75;;;2.55;;
39140;SDS011;24875;48.436;10.298;2023-08-17T00:56:33;6.70;;;2.50;;
39140;SDS011;24875;48.436;10.298;2023-08-17T00:59:00;3.88;;;1.85;;
39140;SDS011;24875;48.436;10.298;2023-08-17T01:01:26;5.90;;;2.10;;
39140;SDS011;24875;48.436;10.298;2023-08-17T01:03:53;3.97;;;2.08;;
39140;SDS011;24875;48.436;10.298;2023-08-17T01:06:21;3.72;;;2.10;;
39140;SDS011;24875;48.436;10.298;2023-08-17T01:08:48;3.63;;;2.10;;
39140;SDS011;24875;48.436;10.298;2023-08-17T01:11:18;4.43;;;2.20;;
39140;SDS011;24875;48.436;10.298;2023-08-17T01:13:53;4.25;;;2.38;;
39140;SDS011;24875;48.436;10.298;2023-08-17T01:16:24;4.57;;;2.30;;
39140;SDS011;24875;48.436;10.298;2023-08-17T01:18:55;6.63;;;2.22;;
39140;SDS011;24875;48.436;10.298;2023-08-17T01:21:28;4.10;;;2.22;;
39140;SDS011;24875;48.436;10.298;2023-08-17T01:24:08;5.07;;;2.13;;
39140;SDS011;24875;48.436;10.298;2023-08-17T01:26:36;6.60;;;2.38;;
39140;SDS011;24875;48.436;10.298;2023-08-17T01:29:03;2.95;;;1.85;;
39140;SDS011;24875;48.436;10.298;2023-08-17T01:31:30;5.38;;;2.17;;
39140;SDS011;24875;48.436;10.298;2023-08-17T01:34:02;3.50;;;2.10;;
39140;SDS011;24875;48.436;10.298;2023-08-17T01:36:33;4.00;;;2.35;;
39140;SDS011;24875;48.436;10.298;2023-08-17T01:39:03;3.40;;;2.03;;
39140;SDS011;24875;48.436;10.298;2023-08-17T01:41:33;2.95;;;1.77;;
39140;SDS011;24875;48.436;10.298;2023-08-17T01:44:01;3.30;;;2.00;;
39140;SDS011;24875;48.436;10.298;2023-08-17T01:46:30;3.58;;;1.95;;
39140;SDS011;24875;48.436;10.298;2023-08-17T01:48:57;2.85;;;1.98;;
39140;SDS011;24875;48.436;10.298;2023-08-17T01:51:24;3.85;;;2.10;;
39140;SDS011;24875;48.436;10.298;2023-08-17T01:53:51;2.75;;;2.05;;
39140;SDS011;24875;48.436;10.298;2023-08-17T01:56:17;4.07;;;1.95;;
39140;SDS011;24875;48.436;10.298;2023-08-17T01:58:45;2.90;;;1.75;;
39140;SDS011;24875;48.436;10.298;2023-08-17T02:01:12;4.13;;;2.22;;
39140;SDS011;24875;48.436;10.298;2023-08-17T02:03:38;2.08;;;1.67;;
39140;SDS011;24875;48.436;10.298;2023-08-17T02:06:05;4.05;;;2.20;;
39140;SDS011;24875;48.436;10.298;2023-08-17T02:08:32;4.65;;;2.60;;
39140;SDS011;24875;48.436;10.298;2023-08-17T02:10:59;2.90;;;1.98;;
39140;SDS011;24875;48.436;10.298;2023-08-17T02:13:26;3.30;;;1.95;;
39140;SDS011;24875;48.436;10.298;2023-08-17T02:15:54;3.65;;;2.30;;
39140;SDS011;24875;48.436;10.298;2023-08-17T02:18:20;2.85;;;1.88;;
39140;SDS011;24875;48.436;10.298;2023-08-17T02:20:47;3.75;;;1.98;;
39140;SDS011;24875;48.436;10.298;2023-08-17T02:23:13;6.65;;;2.67;;
39140;SDS011;24875;48.436;10.298;2023-08-17T02:25:40;6.88;;;2.40;;
39140;SDS011;24875;48.436;10.298;2023-08-17T02:28:06;4.03;;;2.50;;
39140;SDS011;24875;48.436;10.298;2023-08-17T02:30:33;3.80;;;2.00;;
39140;SDS011;24875;48.436;10.298;2023-08-17T02:33:01;4.65;;;2.55;;
39140;SDS011;24875;48.436;10.298;2023-08-17T02:35:28;3.80;;;2.10;;
39140;SDS011;24875;48.436;10.298;2023-08-17T02:37:54;5.63;;;2.15;;
39140;SDS011;24875;48.436;10.298;2023-08-17T02:40:21;6.03;;;2.45;;
39140;SDS011;24875;48.436;10.298;2023-08-17T02:42:47;3.92;;;2.13;;
39140;SDS011;24875;48.436;10.298;2023-08-17T02:45:14;3.47;;;1.98;;
39140;SDS011;24875;48.436;10.298;2023-08-17T02:47:40;4.35;;;2.00;;
39140;SDS011;24875;48.436;10.298;2023-08-17T02:52:35;2.63;;;1.73;;
39140;SDS011;24875;48.436;10.298;2023-08-17T02:55:02;4.40;;;2.42;;
39140;SDS011;24875;48.436;10.298;2023-08-17T02:57:29;4.78;;;2.58;;
39140;SDS011;24875;48.436;10.298;2023-08-17T02:59:55;4.82;;;2.30;;
39140;SDS011;24875;48.436;10.298;2023-08-17T03:02:22;4.22;;;2.47;;
39140;SDS011;24875;48.436;10.298;2023-08-17T03:04:48;4.03;;;2.60;;
39140;SDS011;24875;48.436;10.298;2023-08-17T03:07:15;5.35;;;3.03;;
39140;SDS011;24875;48.436;10.298;2023-08-17T03:09:43;4.93;;;2.63;;
39140;SDS011;24875;48.436;10.298;2023-08-17T03:12:09;5.07;;;2.70;;
39140;SDS011;24875;48.436;10.298;2023-08-17T03:14:36;3.55;;;2.10;;
39140;SDS011;24875;48.436;10.298;2023-08-17T03:17:02;4.45;;;2.22;;
39140;SDS011;24875;48.436;10.298;2023-08-17T03:19:29;4.60;;;2.30;;
39140;SDS011;24875;48.436;10.298;2023-08-17T03:21:55;7.07;;;2.30;;
39140;SDS011;24875;48.436;10.298;2023-08-17T03:24:22;4.47;;;2.85;;
39140;SDS011;24875;48.436;10.298;2023-08-17T03:26:50;5.65;;;2.63;;
39140;SDS011;24875;48.436;10.298;2023-08-17T03:29:16;5.38;;;2.30;;
39140;SDS011;24875;48.436;10.298;2023-08-17T03:31:43;4.22;;;2.72;;
39140;SDS011;24875;48.436;10.298;2023-08-17T03:34:09;7.47;;;2.35;;
39140;SDS011;24875;48.436;10.298;2023-08-17T03:36:36;5.10;;;2.60;;
39140;SDS011;24875;48.436;10.298;2023-08-17T03:39:03;3.92;;;2.78;;
39140;SDS011;24875;48.436;10.298;2023-08-17T03:41:29;4.63;;;2.58;;
39140;SDS011;24875;48.436;10.298;2023-08-17T03:43:57;4.05;;;2.60;;
39140;SDS011;24875;48.436;10.298;2023-08-17T03:46:24;3.85;;;2.20;;
39140;SDS011;24875;48.436;10.298;2023-08-17T03:48:50;4.32;;;2.28;;
39140;SDS011;24875;48.436;10.298;2023-08-17T03:51:17;3.42;;;2.15;;
39140;SDS011;24875;48.436;10.298;2023-08-17T03:53:44;5.05;;;3.35;;
39140;SDS011;24875;48.436;10.298;2023-08-17T03:56:10;4.50;;;2.63;;
39140;SDS011;24875;48.436;10.298;2023-08-17T03:58:37;4.07;;;2.10;;
39140;SDS011;24875;48.436;10.298;2023-08-17T04:01:05;3.38;;;1.77;;
39140;SDS011;24875;48.436;10.298;2023-08-17T04:03:31;5.20;;;2.53;;
39140;SDS011;24875;48.436;10.298;2023-08-17T04:05:58;8.30;;;2.80;;
39140;SDS011;24875;48.436;10.298;2023-08-17T04:08:30;6.50;;;3.20;;
39140;SDS011;24875;48.436;10.298;2023-08-17T04:10:57;8.45;;;2.85;;
39140;SDS011;24875;48.436;10.298;2023-08-17T04:13:23;3.88;;;2.33;;
39140;SDS011;24875;48.436;10.298;2023-08-17T04:15:52;7.45;;;3.13;;
39140;SDS011;24875;48.436;10.298;2023-08-17T04:18:20;4.85;;;2.63;;
39140;SDS011;24875;48.436;10.298;2023-08-17T04:20:46;7.32;;;3.63;;
39140;SDS011;24875;48.436;10.298;2023-08-17T04:23:13;6.85;;;3.25;;
39140;SDS011;24875;48.436;10.298;2023-08-17T04:25:40;6.65;;;2.63;;
39140;SDS011;24875;48.436;10.298;2023-08-17T04:28:06;10.40;;;2.88;;
39140;SDS011;24875;48.436;10.298;2023-08-17T04:30:33;4.30;;;2.90;;
39140;SDS011;24875;48.436;10.298;2023-08-17T04:32:59;6.80;;;2.30;;
39140;SDS011;24875;48.436;10.298;2023-08-17T04:35:27;6.60;;;2.85;;
39140;SDS011;24875;48.436;10.298;2023-08-17T04:37:54;5.57;;;2.40;;
39140;SDS011;24875;48.436;10.298;2023-08-17T04:40:20;3.97;;;2.55;;
39140;SDS011;24875;48.436;10.298;2023-08-17T04:42:47;4.95;;;2.45;;
39140;SDS011;24875;48.436;10.298;2023-08-17T04:45:13;4.40;;;2.42;;
39140;SDS011;24875;48.436;10.298;2023-08-17T04:47:40;3.00;;;1.88;;
39140;SDS011;24875;48.436;10.298;2023-08-17T04:50:06;6.35;;;2.83;;
39140;SDS011;24875;48.436;10.298;2023-08-17T04:52:35;10.15;;;3.75;;
39140;SDS011;24875;48.436;10.298;2023-08-17T04:55:01;5.15;;;3.20;;
39140;SDS011;24875;48.436;10.298;2023-08-17T04:57:28;4.70;;;2.30;;
39140;SDS011;24875;48.436;10.298;2023-08-17T04:59:55;4.85;;;2.42;;
39140;SDS011;24875;48.436;10.298;2023-08-17T05:02:21;7.15;;;2.40;;
39140;SDS011;24875;48.436;10.298;2023-08-17T05:04:48;4.95;;;2.75;;
39140;SDS011;24875;48.436;10.298;2023-08-17T05:07:15;4.63;;;2.95;;
39140;SDS011;24875;48.436;10.298;2023-08-17T05:09:43;6.18;;;3.30;;
39140;SDS011;24875;48.436;10.298;2023-08-17T05:12:09;5.45;;;2.83;;
39140;SDS011;24875;48.436;10.298;2023-08-17T05:14:36;4.13;;;2.33;;
39140;SDS011;24875;48.436;10.298;2023-08-17T05:17:02;6.63;;;3.00;;
39140;SDS011;24875;48.436;10.298;2023-08-17T05:19:29;5.15;;;2.70;;
39140;SDS011;24875;48.436;10.298;2023-08-17T05:21:55;7.47;;;2.75;;
39140;SDS011;24875;48.436;10.298;2023-08-17T05:24:22;6.45;;;3.20;;
39140;SDS011;24875;48.436;10.298;2023-08-17T05:26:50;6.22;;;2.88;;
39140;SDS011;24875;48.436;10.298;2023-08-17T05:29:16;5.85;;;3.28;;
39140;SDS011;24875;48.436;10.298;2023-08-17T05:31:43;4.93;;;2.83;;
39140;SDS011;24875;48.436;10.298;2023-08-17T05:34:09;7.35;;;2.78;;
39140;SDS011;24875;48.436;10.298;2023-08-17T05:36:36;6.40;;;2.78;;
39140;SDS011;24875;48.436;10.298;2023-08-17T05:39:03;6.63;;;2.30;;
39140;SDS011;24875;48.436;10.298;2023-08-17T05:41:29;5.60;;;3.08;;
39140;SDS011;24875;48.436;10.298;2023-08-17T05:43:57;7.13;;;2.90;;
39140;SDS011;24875;48.436;10.298;2023-08-17T05:46:24;9.63;;;3.30;;
39140;SDS011;24875;48.436;10.298;2023-08-17T05:48:50;5.55;;;2.90;;
39140;SDS011;24875;48.436;10.298;2023-08-17T05:51:17;9.15;;;3.10;;
39140;SDS011;24875;48.436;10.298;2023-08-17T05:53:43;4.43;;;2.33;;
39140;SDS011;24875;48.436;10.298;2023-08-17T05:56:10;5.88;;;2.83;;
39140;SDS011;24875;48.436;10.298;2023-08-17T05:58:36;2.90;;;1.85;;
39140;SDS011;24875;48.436;10.298;2023-08-17T06:01:05;5.20;;;3.05;;
39140;SDS011;24875;48.436;10.298;2023-08-17T06:03:33;5.28;;;2.58;;
39140;SDS011;24875;48.436;10.298;2023-08-17T06:05:59;5.05;;;2.60;;
39140;SDS011;24875;48.436;10.298;2023-08-17T06:08:26;4.22;;;2.30;;
39140;SDS011;24875;48.436;10.298;2023-08-17T06:10:52;4.97;;;3.10;;
39140;SDS011;24875;48.436;10.298;2023-08-17T06:13:19;4.97;;;2.85;;
39140;SDS011;24875;48.436;10.298;2023-08-17T06:15:46;5.05;;;2.75;;
39140;SDS011;24875;48.436;10.298;2023-08-17T06:18:14;5.82;;;3.28;;
39140;SDS011;24875;48.436;10.298;2023-08-17T06:20:40;7.25;;;3.28;;
39140;SDS011;24875;48.436;10.298;2023-08-17T06:23:07;5.65;;;3.30;;
39140;SDS011;24875;48.436;10.298;2023-08-17T06:25:33;8.80;;;2.92;;
39140;SDS011;24875;48.436;10.298;2023-08-17T06:28:00;4.50;;;2.55;;
39140;SDS011;24875;48.436;10.298;2023-08-17T06:30:27;4.70;;;2.60;;
39140;SDS011;24875;48.436;10.298;2023-08-17T06:32:53;5.38;;;3.38;;
39140;SDS011;24875;48.436;10.298;2023-08-17T06:35:21;4.53;;;2.85;;
39140;SDS011;24875;48.436;10.298;2023-08-17T06:37:48;6.72;;;3.45;;
39140;SDS011;24875;48.436;10.298;2023-08-17T06:40:16;8.18;;;3.33;;
39140;SDS011;24875;48.436;10.298;2023-08-17T06:42:42;5.10;;;3.08;;
39140;SDS011;24875;48.436;10.298;2023-08-17T06:45:09;5.20;;;3.05;;
39140;SDS011;24875;48.436;10.298;2023-08-17T06:47:36;12.05;;;3.88;;
39140;SDS011;24875;48.436;10.298;2023-08-17T06:50:02;10.27;;;3.30;;
39140;SDS011;24875;48.436;10.298;2023-08-17T06:52:31;5.75;;;3.03;;
39140;SDS011;24875;48.436;10.298;2023-08-17T06:54:59;5.38;;;2.85;;
39140;SDS011;24875;48.436;10.298;2023-08-17T06:57:26;4.20;;;2.83;;
39140;SDS011;24875;48.436;10.298;2023-08-17T06:59:53;6.40;;;3.25;;
39140;SDS011;24875;48.436;10.298;2023-08-17T07:02:20;5.60;;;3.03;;
39140;SDS011;24875;48.436;10.298;2023-08-17T07:04:47;4.35;;;2.67;;
39140;SDS011;24875;48.436;10.298;2023-08-17T07:07:13;8.45;;;2.67;;
39140;SDS011;24875;48.436;10.298;2023-08-17T07:09:41;7.30;;;3.60;;
39140;SDS011;24875;48.436;10.298;2023-08-17T07:12:08;5.40;;;2.90;;
39140;SDS011;24875;48.436;10.298;2023-08-17T07:14:34;6.10;;;3.50;;
39140;SDS011;24875;48.436;10.298;2023-08-17T07:17:02;6.40;;;3.47;;
39140;SDS011;24875;48.436;10.298;2023-08-17T07:19:29;5.35;;;3.45;;
39140;SDS011;24875;48.436;10.298;2023-08-17T07:21:56;6.28;;;3.17;;
39140;SDS011;24875;48.436;10.298;2023-08-17T07:24:22;8.35;;;3.60;;
39140;SDS011;24875;48.436;10.298;2023-08-17T07:26:50;6.55;;;3.60;;
39140;SDS011;24875;48.436;10.298;2023-08-17T07:29:17;6.00;;;3.22;;
39140;SDS011;24875;48.436;10.298;2023-08-17T07:31:43;7.80;;;3.47;;
39140;SDS011;24875;48.436;10.298;2023-08-17T07:34:10;5.80;;;3.33;;
39140;SDS011;24875;48.436;10.298;2023-08-17T07:36:36;5.75;;;3.03;;
39140;SDS011;24875;48.436;10.298;2023-08-17T07:39:03;7.18;;;3.75;;
39140;SDS011;24875;48.436;10.298;2023-08-17T07:41:31;9.18;;;3.60;;
39140;SDS011;24875;48.436;10.298;2023-08-17T07:43:58;5.53;;;3.30;;
39140;SDS011;24875;48.436;10.298;2023-08-17T07:46:25;5.80;;;3.20;;
39140;SDS011;24875;48.436;10.298;2023-08-17T07:48:51;6.00;;;3.75;;
39140;SDS011;24875;48.436;10.298;2023-08-17T07:51:18;8.32;;;3.15;;
39140;SDS011;24875;48.436;10.298;2023-08-17T07:53:44;4.90;;;2.90;;
39140;SDS011;24875;48.436;10.298;2023-08-17T07:56:11;9.10;;;3.88;;
39140;SDS011;24875;48.436;10.298;2023-08-17T07:58:38;6.45;;;3.40;;
39140;SDS011;24875;48.436;10.298;2023-08-17T08:01:06;5.22;;;3.10;;
39140;SDS011;24875;48.436;10.298;2023-08-17T08:03:32;6.88;;;4.00;;
39140;SDS011;24875;48.436;10.298;2023-08-17T08:05:59;7.13;;;3.28;;
39140;SDS011;24875;48.436;10.298;2023-08-17T08:08:25;6.57;;;3.08;;
39140;SDS011;24875;48.436;10.298;2023-08-17T08:10:52;7.45;;;3.88;;
39140;SDS011;24875;48.436;10.298;2023-08-17T08:13:19;7.40;;;3.78;;
39140;SDS011;24875;48.436;10.298;2023-08-17T08:15:46;7.15;;;3.35;;
39140;SDS011;24875;48.436;10.298;2023-08-17T08:18:14;4.65;;;2.95;;
39140;SDS011;24875;48.436;10.298;2023-08-17T08:20:40;6.22;;;3.40;;
39140;SDS011;24875;48.436;10.298;2023-08-17T08:23:07;5.15;;;2.75;;
39140;SDS011;24875;48.436;10.298;2023-08-17T08:25:33;5.28;;;2.55;;
39140;SDS011;24875;48.436;10.298;2023-08-17T08:28:00;5.35;;;2.70;;
39140;SDS011;24875;48.436;10.298;2023-08-17T08:30:26;3.35;;;2.08;;
39140;SDS011;24875;48.436;10.298;2023-08-17T08:32:53;4.50;;;2.45;;
39140;SDS011;24875;48.436;10.298;2023-08-17T08:35:23;6.75;;;2.92;;
39140;SDS011;24875;48.436;10.298;2023-08-17T08:37:50;4.72;;;2.70;;
39140;SDS011;24875;48.436;10.298;2023-08-17T08:40:17;5.13;;;2.47;;
39140;SDS011;24875;48.436;10.298;2023-08-17T08:42:45;34.10;;;4.00;;
39140;SDS011;24875;48.436;10.298;2023-08-17T08:45:11;5.03;;;2.88;;
39140;SDS011;24875;48.436;10.298;2023-08-17T08:50:06;5.15;;;2.45;;
39140;SDS011;24875;48.436;10.298;2023-08-17T08:52:34;3.65;;;2.30;;
39140;SDS011;24875;48.436;10.298;2023-08-17T08:55:07;8.82;;;2.92;;
39140;SDS011;24875;48.436;10.298;2023-08-17T08:57:37;5.95;;;2.85;;
39140;SDS011;24875;48.436;10.298;2023-08-17T09:00:05;4.68;;;2.92;;
39140;SDS011;24875;48.436;10.298;2023-08-17T09:02:34;2.92;;;2.38;;
39140;SDS011;24875;48.436;10.298;2023-08-17T09:05:01;5.72;;;2.67;;
39140;SDS011;24875;48.436;10.298;2023-08-17T09:07:28;5.25;;;2.80;;
39140;SDS011;24875;48.436;10.298;2023-08-17T09:09:57;5.35;;;2.75;;
39140;SDS011;24875;48.436;10.298;2023-08-17T09:12:24;5.20;;;2.83;;
39140;SDS011;24875;48.436;10.298;2023-08-17T09:14:51;7.35;;;2.63;;
39140;SDS011;24875;48.436;10.298;2023-08-17T09:17:22;4.72;;;2.55;;
39140;SDS011;24875;48.436;10.298;2023-08-17T09:19:49;4.93;;;2.65;;
39140;SDS011;24875;48.436;10.298;2023-08-17T09:22:18;5.43;;;2.88;;
39140;SDS011;24875;48.436;10.298;2023-08-17T09:24:48;4.25;;;2.50;;
39140;SDS011;24875;48.436;10.298;2023-08-17T09:27:16;3.28;;;2.08;;
39140;SDS011;24875;48.436;10.298;2023-08-17T09:29:43;5.70;;;2.95;;
39140;SDS011;24875;48.436;10.298;2023-08-17T09:32:10;7.07;;;2.97;;
39140;SDS011;24875;48.436;10.298;2023-08-17T09:34:37;6.47;;;3.13;;
39140;SDS011;24875;48.436;10.298;2023-08-17T09:37:04;4.70;;;2.65;;
39140;SDS011;24875;48.436;10.298;2023-08-17T09:39:30;4.15;;;2.65;;
39140;SDS011;24875;48.436;10.298;2023-08-17T09:41:58;6.13;;;2.92;;
39140;SDS011;24875;48.436;10.298;2023-08-17T09:44:27;5.18;;;2.83;;
39140;SDS011;24875;48.436;10.298;2023-08-17T09:46:55;5.63;;;3.22;;
39140;SDS011;24875;48.436;10.298;2023-08-17T09:49:22;5.95;;;2.83;;
39140;SDS011;24875;48.436;10.298;2023-08-17T09:51:49;4.55;;;2.70;;
39140;SDS011;24875;48.436;10.298;2023-08-17T09:54:21;4.40;;;2.80;;
39140;SDS011;24875;48.436;10.298;2023-08-17T09:56:49;6.28;;;3.33;;
39140;SDS011;24875;48.436;10.298;2023-08-17T09:59:16;5.82;;;2.85;;
39140;SDS011;24875;48.436;10.298;2023-08-17T10:01:44;4.50;;;2.50;;
39140;SDS011;24875;48.436;10.298;2023-08-17T10:04:19;6.68;;;3.08;;
39140;SDS011;24875;48.436;10.298;2023-08-17T10:06:47;4.05;;;2.67;;
39140;SDS011;24875;48.436;10.298;2023-08-17T10:09:14;4.47;;;2.70;;
39140;SDS011;24875;48.436;10.298;2023-08-17T10:11:47;5.85;;;2.95;;
39140;SDS011;24875;48.436;10.298;2023-08-17T10:14:18;4.20;;;2.83;;
39140;SDS011;24875;48.436;10.298;2023-08-17T10:16:53;3.70;;;2.65;;
39140;SDS011;24875;48.436;10.298;2023-08-17T10:19:30;5.03;;;2.95;;
39140;SDS011;24875;48.436;10.298;2023-08-17T10:22:03;5.30;;;2.53;;
39140;SDS011;24875;48.436;10.298;2023-08-17T10:24:34;6.35;;;2.90;;
39140;SDS011;24875;48.436;10.298;2023-08-17T10:27:03;4.13;;;2.42;;
39140;SDS011;24875;48.436;10.298;2023-08-17T10:29:31;5.80;;;3.00;;
39140;SDS011;24875;48.436;10.298;2023-08-17T10:32:01;6.63;;;2.80;;
39140;SDS011;24875;48.436;10.298;2023-08-17T10:34:27;4.90;;;2.78;;
39140;SDS011;24875;48.436;10.298;2023-08-17T10:36:55;5.20;;;2.55;;
39140;SDS011;24875;48.436;10.298;2023-08-17T10:39:23;4.40;;;2.72;;
39140;SDS011;24875;48.436;10.298;2023-08-17T10:41:52;4.93;;;2.65;;
39140;SDS011;24875;48.436;10.298;2023-08-17T10:44:37;6.47;;;2.88;;
39140;SDS011;24875;48.436;10.298;2023-08-17T10:47:19;5.20;;;2.78;;
39140;SDS011;24875;48.436;10.298;2023-08-17T10:49:47;4.22;;;2.55;;
39140;SDS011;24875;48.436;10.298;2023-08-17T10:52:14;4.72;;;2.70;;
39140;SDS011;24875;48.436;10.298;2023-08-17T10:54:41;4.55;;;2.50;;
39140;SDS011;24875;48.436;10.298;2023-08-17T10:57:24;3.83;;;2.30;;
39140;SDS011;24875;48.436;10.298;2023-08-17T11:00:04;4.97;;;2.72;;
39140;SDS011;24875;48.436;10.298;2023-08-17T11:02:34;5.43;;;2.88;;
39140;SDS011;24875;48.436;10.298;2023-08-17T11:05:00;5.50;;;3.00;;
39140;SDS011;24875;48.436;10.298;2023-08-17T11:07:29;4.00;;;2.50;;
39140;SDS011;24875;48.436;10.298;2023-08-17T11:10:10;4.53;;;2.60;;
39140;SDS011;24875;48.436;10.298;2023-08-17T11:12:37;6.32;;;2.40;;
39140;SDS011;24875;48.436;10.298;2023-08-17T11:15:04;6.18;;;2.70;;
39140;SDS011;24875;48.436;10.298;2023-08-17T11:17:31;3.53;;;2.17;;
39140;SDS011;24875;48.436;10.298;2023-08-17T11:19:59;3.65;;;2.15;;
39140;SDS011;24875;48.436;10.298;2023-08-17T11:22:25;3.85;;;2.35;;
39140;SDS011;24875;48.436;10.298;2023-08-17T11:24:52;3.97;;;2.20;;
39140;SDS011;24875;48.436;10.298;2023-08-17T11:27:18;3.78;;;2.22;;
39140;SDS011;24875;48.436;10.298;2023-08-17T11:29:46;6.68;;;2.95;;
39140;SDS011;24875;48.436;10.298;2023-08-17T11:32:15;4.28;;;2.45;;
39140;SDS011;24875;48.436;10.298;2023-08-17T11:34:42;3.55;;;1.80;;
39140;SDS011;24875;48.436;10.298;2023-08-17T11:37:12;4.45;;;2.72;;
39140;SDS011;24875;48.436;10.298;2023-08-17T11:39:39;5.10;;;2.42;;
39140;SDS011;24875;48.436;10.298;2023-08-17T11:42:06;4.53;;;2.65;;
39140;SDS011;24875;48.436;10.298;2023-08-17T11:44:32;5.18;;;3.45;;
39140;SDS011;24875;48.436;10.298;2023-08-17T11:46:59;3.40;;;2.05;;
39140;SDS011;24875;48.436;10.298;2023-08-17T11:49:26;6.75;;;3.15;;
39140;SDS011;24875;48.436;10.298;2023-08-17T11:51:52;6.38;;;2.45;;
39140;SDS011;24875;48.436;10.298;2023-08-17T11:54:20;5.55;;;2.33;;
39140;SDS011;24875;48.436;10.298;2023-08-17T11:56:47;3.30;;;2.28;;
39140;SDS011;24875;48.436;10.298;2023-08-17T11:59:14;3.78;;;2.30;;
39140;SDS011;24875;48.436;10.298;2023-08-17T12:01:43;2.78;;;2.08;;
39140;SDS011;24875;48.436;10.298;2023-08-17T12:04:09;3.47;;;2.10;;
39140;SDS011;24875;48.436;10.298;2023-08-17T12:06:36;4.30;;;2.00;;
39140;SDS011;24875;48.436;10.298;2023-08-17T12:09:08;2.70;;;1.80;;
39140;SDS011;24875;48.436;10.298;2023-08-17T12:11:36;2.80;;;2.20;;
39140;SDS011;24875;48.436;10.298;2023-08-17T12:14:08;2.65;;;1.73;;
39140;SDS011;24875;48.436;10.298;2023-08-17T12:16:44;3.13;;;2.10;;
39140;SDS011;24875;48.436;10.298;2023-08-17T12:19:12;5.80;;;2.40;;
39140;SDS011;24875;48.436;10.298;2023-08-17T12:21:40;4.03;;;2.22;;
39140;SDS011;24875;48.436;10.298;2023-08-17T12:24:08;5.22;;;2.35;;
39140;SDS011;24875;48.436;10.298;2023-08-17T12:26:36;3.42;;;2.22;;
39140;SDS011;24875;48.436;10.298;2023-08-17T12:29:07;3.67;;;2.00;;
39140;SDS011;24875;48.436;10.298;2023-08-17T12:31:33;3.25;;;1.85;;
39140;SDS011;24875;48.436;10.298;2023-08-17T12:34:00;2.30;;;1.73;;
39140;SDS011;24875;48.436;10.298;2023-08-17T12:36:26;3.10;;;1.60;;
39140;SDS011;24875;48.436;10.298;2023-08-17T12:38:53;2.15;;;1.48;;
39140;SDS011;24875;48.436;10.298;2023-08-17T12:41:20;1.80;;;1.40;;
39140;SDS011;24875;48.436;10.298;2023-08-17T12:43:48;2.97;;;1.60;;
39140;SDS011;24875;48.436;10.298;2023-08-17T12:46:15;2.55;;;1.50;;
39140;SDS011;24875;48.436;10.298;2023-08-17T12:48:41;2.33;;;1.60;;
39140;SDS011;24875;48.436;10.298;2023-08-17T12:51:08;2.42;;;1.70;;
39140;SDS011;24875;48.436;10.298;2023-08-17T12:53:34;2.15;;;1.38;;
39140;SDS011;24875;48.436;10.298;2023-08-17T12:56:01;2.92;;;1.75;;
39140;SDS011;24875;48.436;10.298;2023-08-17T12:58:27;4.88;;;1.70;;
39140;SDS011;24875;48.436;10.298;2023-08-17T13:00:55;2.60;;;1.73;;
39140;SDS011;24875;48.436;10.298;2023-08-17T13:03:21;2.50;;;1.80;;
39140;SDS011;24875;48.436;10.298;2023-08-17T13:05:48;2.33;;;1.52;;
39140;SDS011;24875;48.436;10.298;2023-08-17T13:08:15;3.95;;;1.80;;
39140;SDS011;24875;48.436;10.298;2023-08-17T13:10:41;5.75;;;1.75;;
39140;SDS011;24875;48.436;10.298;2023-08-17T13:13:08;2.58;;;1.40;;
39140;SDS011;24875;48.436;10.298;2023-08-17T13:15:34;2.35;;;1.60;;
39140;SDS011;24875;48.436;10.298;2023-08-17T13:18:02;1.95;;;1.50;;
39140;SDS011;24875;48.436;10.298;2023-08-17T13:20:29;1.88;;;1.30;;
39140;SDS011;24875;48.436;10.298;2023-08-17T13:22:56;1.85;;;1.50;;
39140;SDS011;24875;48.436;10.298;2023-08-17T13:25:22;2.47;;;1.67;;
39140;SDS011;24875;48.436;10.298;2023-08-17T13:27:49;1.83;;;1.40;;
39140;SDS011;24875;48.436;10.298;2023-08-17T13:30:15;3.30;;;1.95;;
39140;SDS011;24875;48.436;10.298;2023-08-17T13:32:42;2.08;;;1.50;;
39140;SDS011;24875;48.436;10.298;2023-08-17T13:35:10;2.38;;;1.60;;
39140;SDS011;24875;48.436;10.298;2023-08-17T13:37:36;2.67;;;1.50;;
39140;SDS011;24875;48.436;10.298;2023-08-17T13:40:03;2.55;;;1.60;;
39140;SDS011;24875;48.436;10.298;2023-08-17T13:42:31;2.70;;;1.80;;
39140;SDS011;24875;48.436;10.298;2023-08-17T13:44:58;2.53;;;1.60;;
39140;SDS011;24875;48.436;10.298;2023-08-17T13:47:25;2.00;;;1.45;;
39140;SDS011;24875;48.436;10.298;2023-08-17T13:49:51;3.58;;;1.73;;
39140;SDS011;24875;48.436;10.298;2023-08-17T13:52:19;2.28;;;1.42;;
39140;SDS011;24875;48.436;10.298;2023-08-17T13:54:46;4.10;;;1.60;;
39140;SDS011;24875;48.436;10.298;2023-08-17T13:57:12;5.70;;;1.75;;
39140;SDS011;24875;48.436;10.298;2023-08-17T13:59:39;1.25;;;1.00;;
39140;SDS011;24875;48.436;10.298;2023-08-17T14:02:05;1.42;;;1.08;;
39140;SDS011;24875;48.436;10.298;2023-08-17T14:04:32;2.97;;;1.17;;
39140;SDS011;24875;48.436;10.298;2023-08-17T14:06:58;1.80;;;1.05;;
39140;SDS011;24875;48.436;10.298;2023-08-17T14:09:26;1.50;;;1.10;;
39140;SDS011;24875;48.436;10.298;2023-08-17T14:11:53;1.42;;;1.17;;
39140;SDS011;24875;48.436;10.298;2023-08-17T14:14:19;3.58;;;1.08;;
39140;SDS011;24875;48.436;10.298;2023-08-17T14:16:45;2.05;;;1.20;;
39140;SDS011;24875;48.436;10.298;2023-08-17T14:19:12;3.35;;;1.40;;
39140;SDS011;24875;48.436;10.298;2023-08-17T14:21:38;2.65;;;1.42;;
39140;SDS011;24875;48.436;10.298;2023-08-17T14:24:05;1.73;;;1.23;;
39140;SDS011;24875;48.436;10.298;2023-08-17T14:26:34;1.58;;;1.35;;
39140;SDS011;24875;48.436;10.298;2023-08-17T14:29:01;0.98;;;0.80;;
39140;SDS011;24875;48.436;10.298;2023-08-17T14:31:27;1.60;;;0.63;;
39140;SDS011;24875;48.436;10.298;2023-08-17T14:33:54;2.55;;;1.15;;
39140;SDS011;24875;48.436;10.298;2023-08-17T14:36:20;0.50;;;0.47;;
39140;SDS011;24875;48.436;10.298;2023-08-17T14:38:47;1.02;;;0.50;;